Portada
METAR-TAF:

METAR-TAF

Aeropuertos :

Damasco, Siria

Aeropuerto Internacional de Damasco

latitud: 33-25N, longitud: 036-31E, altitud: 608 m

Observación

El informe se hizo hace 7 minutos, a las 02:00 UTC
Viento 8 kt del sur-suroeste
Temperatura 10°C
Humedad 57%
Presión 1015 hPa
Visibilidad 10 km o más
sin nubes por debajo de 1500 m y sin presencia de cumulonimbus.

METAR: OSDI 230200Z 21008KT CAVOK 10/02 Q1015

Hora: 05:07 (02:07 UTC)

Pronóstico

Pronóstico válido del 23 a las 00 UTC al 24 a las 06 UTC
Viento 10 kt del sur-suroeste
Visibilidad 10 km o más
Escasas nubes a una altura de 3000 ft
Temporalmente
del 23 a las 12 UTC al 23 a las 15 UTC
Viento 15 kt del oeste-suroeste
Visibilidad: 8000 m
Escasas nubes a una altura de 3000 ft

TAF: OSDI 2300/2406 21010KT 9999 FEW030 TEMPO 2312/2315 24015KT 8000 FEW030

Observaciones y pronósticos meteorológicos de más de 4000 aeropuertos (mensajes METAR y TAF).

Los puntos amarillos y rojos representan las estaciones disponibles.

Ponga el ratón en el punto deseado para ver el nombre de la estación.

Haga clic para ver las observaciones y los pronósticos meteorológicos.

Para cambiar el mapa : haga clic en los botones verdes con una cruz de color negro para hacer un zoom, en el botón verde con un guión para alejar o en las flechas verdes para mapas adyacentes.


METAR-TAF: